sensor_id;sensor_type;location;lat;lon;timestamp;P1;durP1;ratioP1;P2;durP2;ratioP2
56051;SDS011;41919;42.648;23.384;2023-06-01T00:00:23;4.80;;;3.50;;
56051;SDS011;41919;42.648;23.384;2023-06-01T00:02:49;5.28;;;3.65;;
56051;SDS011;41919;42.648;23.384;2023-06-01T00:05:15;8.07;;;3.80;;
56051;SDS011;41919;42.648;23.384;2023-06-01T00:07:41;6.15;;;3.95;;
56051;SDS011;41919;42.648;23.384;2023-06-01T00:10:06;8.23;;;4.32;;
56051;SDS011;41919;42.648;23.384;2023-06-01T00:12:32;18.55;;;4.93;;
56051;SDS011;41919;42.648;23.384;2023-06-01T00:14:57;11.13;;;5.32;;
56051;SDS011;41919;42.648;23.384;2023-06-01T00:17:23;7.10;;;4.40;;
56051;SDS011;41919;42.648;23.384;2023-06-01T00:19:48;6.25;;;4.45;;
56051;SDS011;41919;42.648;23.384;2023-06-01T00:22:14;6.10;;;4.15;;
56051;SDS011;41919;42.648;23.384;2023-06-01T00:24:40;6.50;;;3.60;;
56051;SDS011;41919;42.648;23.384;2023-06-01T00:27:06;6.50;;;4.82;;
56051;SDS011;41919;42.648;23.384;2023-06-01T00:29:32;7.68;;;4.45;;
56051;SDS011;41919;42.648;23.384;2023-06-01T00:31:58;5.13;;;3.92;;
56051;SDS011;41919;42.648;23.384;2023-06-01T00:34:23;7.78;;;4.10;;
56051;SDS011;41919;42.648;23.384;2023-06-01T00:36:49;5.43;;;4.13;;
56051;SDS011;41919;42.648;23.384;2023-06-01T00:39:14;6.82;;;4.25;;
56051;SDS011;41919;42.648;23.384;2023-06-01T00:41:39;4.88;;;3.80;;
56051;SDS011;41919;42.648;23.384;2023-06-01T00:44:05;6.18;;;4.25;;
56051;SDS011;41919;42.648;23.384;2023-06-01T00:46:30;5.55;;;4.20;;
56051;SDS011;41919;42.648;23.384;2023-06-01T00:48:57;7.53;;;3.90;;
56051;SDS011;41919;42.648;23.384;2023-06-01T00:51:23;6.03;;;4.30;;
56051;SDS011;41919;42.648;23.384;2023-06-01T00:53:49;6.57;;;4.25;;
56051;SDS011;41919;42.648;23.384;2023-06-01T00:56:16;4.97;;;4.38;;
56051;SDS011;41919;42.648;23.384;2023-06-01T00:58:42;12.02;;;4.68;;
56051;SDS011;41919;42.648;23.384;2023-06-01T01:01:09;5.13;;;4.38;;
56051;SDS011;41919;42.648;23.384;2023-06-01T01:03:43;7.35;;;4.68;;
56051;SDS011;41919;42.648;23.384;2023-06-01T01:11:38;8.40;;;4.60;;
56051;SDS011;41919;42.648;23.384;2023-06-01T01:16:53;6.40;;;4.82;;
56051;SDS011;41919;42.648;23.384;2023-06-01T01:19:52;9.93;;;5.15;;
56051;SDS011;41919;42.648;23.384;2023-06-01T01:30:38;11.52;;;6.90;;
56051;SDS011;41919;42.648;23.384;2023-06-01T01:33:06;7.28;;;4.90;;
56051;SDS011;41919;42.648;23.384;2023-06-01T01:35:32;7.35;;;5.03;;
56051;SDS011;41919;42.648;23.384;2023-06-01T01:37:58;8.48;;;4.72;;
56051;SDS011;41919;42.648;23.384;2023-06-01T01:40:24;6.57;;;4.65;;
56051;SDS011;41919;42.648;23.384;2023-06-01T01:42:50;8.55;;;4.13;;
56051;SDS011;41919;42.648;23.384;2023-06-01T01:45:17;6.22;;;4.63;;
56051;SDS011;41919;42.648;23.384;2023-06-01T01:47:49;9.40;;;4.22;;
56051;SDS011;41919;42.648;23.384;2023-06-01T01:50:24;6.32;;;4.18;;
56051;SDS011;41919;42.648;23.384;2023-06-01T01:52:53;7.10;;;4.63;;
56051;SDS011;41919;42.648;23.384;2023-06-01T01:55:19;7.75;;;5.22;;
56051;SDS011;41919;42.648;23.384;2023-06-01T01:57:48;6.95;;;4.80;;
56051;SDS011;41919;42.648;23.384;2023-06-01T02:00:15;10.15;;;4.88;;
56051;SDS011;41919;42.648;23.384;2023-06-01T02:02:44;8.15;;;4.90;;
56051;SDS011;41919;42.648;23.384;2023-06-01T02:05:10;8.43;;;5.18;;
56051;SDS011;41919;42.648;23.384;2023-06-01T02:07:36;7.15;;;5.13;;
56051;SDS011;41919;42.648;23.384;2023-06-01T02:10:01;7.30;;;5.57;;
56051;SDS011;41919;42.648;23.384;2023-06-01T02:12:27;8.55;;;5.45;;
56051;SDS011;41919;42.648;23.384;2023-06-01T02:14:52;9.82;;;5.68;;
56051;SDS011;41919;42.648;23.384;2023-06-01T02:17:18;8.45;;;5.55;;
56051;SDS011;41919;42.648;23.384;2023-06-01T02:19:43;9.00;;;5.45;;
56051;SDS011;41919;42.648;23.384;2023-06-01T02:22:09;10.32;;;5.03;;
56051;SDS011;41919;42.648;23.384;2023-06-01T02:24:35;9.82;;;6.05;;
56051;SDS011;41919;42.648;23.384;2023-06-01T02:27:00;7.00;;;5.30;;
56051;SDS011;41919;42.648;23.384;2023-06-01T02:29:27;7.43;;;5.03;;
56051;SDS011;41919;42.648;23.384;2023-06-01T02:31:53;8.68;;;5.85;;
56051;SDS011;41919;42.648;23.384;2023-06-01T02:34:18;7.95;;;5.40;;
56051;SDS011;41919;42.648;23.384;2023-06-01T02:36:44;10.05;;;5.90;;
56051;SDS011;41919;42.648;23.384;2023-06-01T02:39:09;7.57;;;5.85;;
56051;SDS011;41919;42.648;23.384;2023-06-01T02:41:35;7.50;;;5.28;;
56051;SDS011;41919;42.648;23.384;2023-06-01T02:44:00;9.57;;;5.43;;
56051;SDS011;41919;42.648;23.384;2023-06-01T02:46:27;7.53;;;5.13;;
56051;SDS011;41919;42.648;23.384;2023-06-01T02:48:52;6.40;;;5.03;;
56051;SDS011;41919;42.648;23.384;2023-06-01T02:51:18;7.13;;;5.03;;
56051;SDS011;41919;42.648;23.384;2023-06-01T02:53:44;7.32;;;4.72;;
56051;SDS011;41919;42.648;23.384;2023-06-01T02:56:11;6.53;;;4.75;;
56051;SDS011;41919;42.648;23.384;2023-06-01T02:58:38;5.35;;;4.43;;
56051;SDS011;41919;42.648;23.384;2023-06-01T03:01:03;5.38;;;4.55;;
56051;SDS011;41919;42.648;23.384;2023-06-01T03:03:29;6.72;;;4.80;;
56051;SDS011;41919;42.648;23.384;2023-06-01T03:05:54;6.28;;;4.80;;
56051;SDS011;41919;42.648;23.384;2023-06-01T03:08:20;6.53;;;5.03;;
56051;SDS011;41919;42.648;23.384;2023-06-01T03:10:46;7.63;;;5.55;;
56051;SDS011;41919;42.648;23.384;2023-06-01T03:13:12;8.32;;;5.07;;
56051;SDS011;41919;42.648;23.384;2023-06-01T03:15:37;10.55;;;5.43;;
56051;SDS011;41919;42.648;23.384;2023-06-01T03:18:03;7.70;;;5.05;;
56051;SDS011;41919;42.648;23.384;2023-06-01T03:20:30;5.85;;;4.53;;
56051;SDS011;41919;42.648;23.384;2023-06-01T03:22:56;8.23;;;4.43;;
56051;SDS011;41919;42.648;23.384;2023-06-01T03:25:22;6.97;;;4.90;;
56051;SDS011;41919;42.648;23.384;2023-06-01T03:27:47;6.72;;;4.70;;
56051;SDS011;41919;42.648;23.384;2023-06-01T03:30:13;6.95;;;4.18;;
56051;SDS011;41919;42.648;23.384;2023-06-01T03:32:40;5.93;;;4.25;;
56051;SDS011;41919;42.648;23.384;2023-06-01T03:35:07;6.43;;;4.88;;
56051;SDS011;41919;42.648;23.384;2023-06-01T03:37:33;6.93;;;5.20;;
56051;SDS011;41919;42.648;23.384;2023-06-01T03:40:00;6.70;;;4.75;;
56051;SDS011;41919;42.648;23.384;2023-06-01T03:42:26;7.47;;;5.22;;
56051;SDS011;41919;42.648;23.384;2023-06-01T03:44:51;6.55;;;4.60;;
56051;SDS011;41919;42.648;23.384;2023-06-01T03:47:17;5.70;;;4.75;;
56051;SDS011;41919;42.648;23.384;2023-06-01T03:49:42;6.47;;;5.10;;
56051;SDS011;41919;42.648;23.384;2023-06-01T03:52:08;16.02;;;9.23;;
56051;SDS011;41919;42.648;23.384;2023-06-01T03:54:33;8.02;;;5.72;;
56051;SDS011;41919;42.648;23.384;2023-06-01T03:56:59;6.85;;;4.80;;
56051;SDS011;41919;42.648;23.384;2023-06-01T03:59:26;10.25;;;4.68;;
56051;SDS011;41919;42.648;23.384;2023-06-01T04:01:51;6.40;;;5.00;;
56051;SDS011;41919;42.648;23.384;2023-06-01T04:04:19;7.20;;;4.80;;
56051;SDS011;41919;42.648;23.384;2023-06-01T04:06:51;6.07;;;4.13;;
56051;SDS011;41919;42.648;23.384;2023-06-01T04:09:17;6.65;;;4.15;;
56051;SDS011;41919;42.648;23.384;2023-06-01T04:11:43;6.32;;;4.35;;
56051;SDS011;41919;42.648;23.384;2023-06-01T04:14:09;6.25;;;4.38;;
56051;SDS011;41919;42.648;23.384;2023-06-01T04:16:34;4.72;;;3.63;;
56051;SDS011;41919;42.648;23.384;2023-06-01T04:19:00;5.82;;;4.43;;
56051;SDS011;41919;42.648;23.384;2023-06-01T04:21:26;17.92;;;10.10;;
56051;SDS011;41919;42.648;23.384;2023-06-01T04:23:51;7.85;;;4.45;;
56051;SDS011;41919;42.648;23.384;2023-06-01T04:26:17;5.00;;;3.95;;
56051;SDS011;41919;42.648;23.384;2023-06-01T04:28:43;5.00;;;4.00;;
56051;SDS011;41919;42.648;23.384;2023-06-01T04:31:10;6.35;;;4.40;;
56051;SDS011;41919;42.648;23.384;2023-06-01T04:33:41;7.43;;;6.25;;
56051;SDS011;41919;42.648;23.384;2023-06-01T04:36:13;12.68;;;9.02;;
56051;SDS011;41919;42.648;23.384;2023-06-01T04:38:41;8.88;;;7.20;;
56051;SDS011;41919;42.648;23.384;2023-06-01T04:41:08;8.35;;;5.30;;
56051;SDS011;41919;42.648;23.384;2023-06-01T04:43:35;7.20;;;5.20;;
56051;SDS011;41919;42.648;23.384;2023-06-01T04:46:03;9.63;;;7.13;;
56051;SDS011;41919;42.648;23.384;2023-06-01T04:48:30;19.30;;;15.68;;
56051;SDS011;41919;42.648;23.384;2023-06-01T04:50:57;19.35;;;13.75;;
56051;SDS011;41919;42.648;23.384;2023-06-01T04:53:24;22.20;;;18.23;;
56051;SDS011;41919;42.648;23.384;2023-06-01T04:55:49;13.77;;;11.50;;
56051;SDS011;41919;42.648;23.384;2023-06-01T04:58:15;10.90;;;6.57;;
56051;SDS011;41919;42.648;23.384;2023-06-01T05:00:41;10.07;;;6.10;;
56051;SDS011;41919;42.648;23.384;2023-06-01T05:03:06;9.10;;;5.65;;
56051;SDS011;41919;42.648;23.384;2023-06-01T05:05:32;10.25;;;7.07;;
56051;SDS011;41919;42.648;23.384;2023-06-01T05:07:57;12.02;;;6.90;;
56051;SDS011;41919;42.648;23.384;2023-06-01T05:10:23;11.85;;;6.55;;
56051;SDS011;41919;42.648;23.384;2023-06-01T05:12:48;12.05;;;7.07;;
56051;SDS011;41919;42.648;23.384;2023-06-01T05:15:14;9.77;;;6.88;;
56051;SDS011;41919;42.648;23.384;2023-06-01T05:17:41;10.40;;;6.45;;
56051;SDS011;41919;42.648;23.384;2023-06-01T05:20:08;11.07;;;7.13;;
56051;SDS011;41919;42.648;23.384;2023-06-01T05:22:34;12.40;;;6.82;;
56051;SDS011;41919;42.648;23.384;2023-06-01T05:25:01;8.23;;;6.25;;
56051;SDS011;41919;42.648;23.384;2023-06-01T05:27:27;12.13;;;6.82;;
56051;SDS011;41919;42.648;23.384;2023-06-01T05:29:52;10.48;;;7.28;;
56051;SDS011;41919;42.648;23.384;2023-06-01T05:32:18;12.77;;;7.20;;
56051;SDS011;41919;42.648;23.384;2023-06-01T05:34:43;10.35;;;7.63;;
56051;SDS011;41919;42.648;23.384;2023-06-01T05:37:09;11.07;;;7.00;;
56051;SDS011;41919;42.648;23.384;2023-06-01T05:39:34;13.57;;;6.55;;
56051;SDS011;41919;42.648;23.384;2023-06-01T05:42:00;11.43;;;7.55;;
56051;SDS011;41919;42.648;23.384;2023-06-01T05:44:25;18.17;;;11.38;;
56051;SDS011;41919;42.648;23.384;2023-06-01T05:46:51;9.88;;;7.15;;
56051;SDS011;41919;42.648;23.384;2023-06-01T05:49:18;10.43;;;7.63;;
56051;SDS011;41919;42.648;23.384;2023-06-01T05:51:43;12.50;;;8.25;;
56051;SDS011;41919;42.648;23.384;2023-06-01T05:54:11;14.77;;;8.40;;
56051;SDS011;41919;42.648;23.384;2023-06-01T05:56:37;12.40;;;7.90;;
56051;SDS011;41919;42.648;23.384;2023-06-01T05:59:02;16.40;;;8.77;;
56051;SDS011;41919;42.648;23.384;2023-06-01T06:01:27;15.60;;;8.45;;
56051;SDS011;41919;42.648;23.384;2023-06-01T06:03:53;10.13;;;8.00;;
56051;SDS011;41919;42.648;23.384;2023-06-01T06:06:20;14.98;;;8.30;;
56051;SDS011;41919;42.648;23.384;2023-06-01T06:08:47;12.23;;;9.25;;
56051;SDS011;41919;42.648;23.384;2023-06-01T06:11:12;14.73;;;8.75;;
56051;SDS011;41919;42.648;23.384;2023-06-01T06:13:38;14.60;;;8.43;;
56051;SDS011;41919;42.648;23.384;2023-06-01T06:16:03;10.55;;;8.35;;
56051;SDS011;41919;42.648;23.384;2023-06-01T06:18:29;15.70;;;8.77;;
56051;SDS011;41919;42.648;23.384;2023-06-01T06:20:54;12.40;;;8.65;;
56051;SDS011;41919;42.648;23.384;2023-06-01T06:23:20;12.00;;;8.88;;
56051;SDS011;41919;42.648;23.384;2023-06-01T06:25:46;11.57;;;8.65;;
56051;SDS011;41919;42.648;23.384;2023-06-01T06:28:11;11.30;;;7.63;;
56051;SDS011;41919;42.648;23.384;2023-06-01T06:30:37;13.82;;;7.85;;
56051;SDS011;41919;42.648;23.384;2023-06-01T06:33:02;12.57;;;8.45;;
56051;SDS011;41919;42.648;23.384;2023-06-01T06:35:27;10.90;;;7.80;;
56051;SDS011;41919;42.648;23.384;2023-06-01T06:37:53;10.23;;;7.70;;
56051;SDS011;41919;42.648;23.384;2023-06-01T06:40:18;9.63;;;7.28;;
56051;SDS011;41919;42.648;23.384;2023-06-01T06:42:45;11.00;;;6.75;;
56051;SDS011;41919;42.648;23.384;2023-06-01T06:45:11;10.63;;;8.43;;
56051;SDS011;41919;42.648;23.384;2023-06-01T06:47:36;19.35;;;7.82;;
56051;SDS011;41919;42.648;23.384;2023-06-01T06:50:02;15.20;;;7.40;;
56051;SDS011;41919;42.648;23.384;2023-06-01T06:52:28;13.15;;;7.65;;
56051;SDS011;41919;42.648;23.384;2023-06-01T06:54:54;12.77;;;7.93;;
56051;SDS011;41919;42.648;23.384;2023-06-01T06:57:19;12.35;;;7.25;;
56051;SDS011;41919;42.648;23.384;2023-06-01T06:59:44;13.30;;;7.70;;
56051;SDS011;41919;42.648;23.384;2023-06-01T07:02:10;15.00;;;8.52;;
56051;SDS011;41919;42.648;23.384;2023-06-01T07:04:35;12.73;;;7.93;;
56051;SDS011;41919;42.648;23.384;2023-06-01T07:07:01;13.63;;;7.88;;
56051;SDS011;41919;42.648;23.384;2023-06-01T07:09:29;11.52;;;7.38;;
56051;SDS011;41919;42.648;23.384;2023-06-01T07:11:54;14.10;;;8.13;;
56051;SDS011;41919;42.648;23.384;2023-06-01T07:14:20;13.23;;;8.30;;
56051;SDS011;41919;42.648;23.384;2023-06-01T07:16:45;10.10;;;8.35;;
56051;SDS011;41919;42.648;23.384;2023-06-01T07:19:11;12.85;;;7.95;;
56051;SDS011;41919;42.648;23.384;2023-06-01T07:21:37;13.43;;;8.40;;
56051;SDS011;41919;42.648;23.384;2023-06-01T07:24:04;14.07;;;8.73;;
56051;SDS011;41919;42.648;23.384;2023-06-01T07:26:30;12.52;;;8.07;;
56051;SDS011;41919;42.648;23.384;2023-06-01T07:28:55;10.88;;;8.15;;
56051;SDS011;41919;42.648;23.384;2023-06-01T07:31:22;11.73;;;8.38;;
56051;SDS011;41919;42.648;23.384;2023-06-01T07:33:48;12.38;;;8.50;;
56051;SDS011;41919;42.648;23.384;2023-06-01T07:36:14;12.55;;;9.73;;
56051;SDS011;41919;42.648;23.384;2023-06-01T07:38:39;15.93;;;10.55;;
56051;SDS011;41919;42.648;23.384;2023-06-01T07:41:05;12.82;;;9.43;;
56051;SDS011;41919;42.648;23.384;2023-06-01T07:43:31;13.57;;;9.65;;
56051;SDS011;41919;42.648;23.384;2023-06-01T07:45:56;15.63;;;11.10;;
56051;SDS011;41919;42.648;23.384;2023-06-01T07:48:22;17.38;;;12.52;;
56051;SDS011;41919;42.648;23.384;2023-06-01T07:50:48;18.15;;;10.85;;
56051;SDS011;41919;42.648;23.384;2023-06-01T07:53:16;17.10;;;11.68;;
56051;SDS011;41919;42.648;23.384;2023-06-01T07:55:42;16.75;;;12.00;;
56051;SDS011;41919;42.648;23.384;2023-06-01T07:58:08;17.48;;;10.13;;
56051;SDS011;41919;42.648;23.384;2023-06-01T08:00:34;16.52;;;11.25;;
56051;SDS011;41919;42.648;23.384;2023-06-01T08:03:01;17.17;;;11.15;;
56051;SDS011;41919;42.648;23.384;2023-06-01T08:05:31;15.32;;;10.90;;
56051;SDS011;41919;42.648;23.384;2023-06-01T08:07:59;14.82;;;10.43;;
56051;SDS011;41919;42.648;23.384;2023-06-01T08:10:24;15.80;;;11.32;;
56051;SDS011;41919;42.648;23.384;2023-06-01T08:12:50;19.00;;;11.35;;
56051;SDS011;41919;42.648;23.384;2023-06-01T08:15:17;17.30;;;12.45;;
56051;SDS011;41919;42.648;23.384;2023-06-01T08:17:45;20.08;;;12.20;;
56051;SDS011;41919;42.648;23.384;2023-06-01T08:20:10;16.77;;;11.93;;
56051;SDS011;41919;42.648;23.384;2023-06-01T08:22:36;19.20;;;13.00;;
56051;SDS011;41919;42.648;23.384;2023-06-01T08:25:03;18.58;;;13.65;;
56051;SDS011;41919;42.648;23.384;2023-06-01T08:27:29;19.70;;;14.05;;
56051;SDS011;41919;42.648;23.384;2023-06-01T08:29:54;22.80;;;14.93;;
56051;SDS011;41919;42.648;23.384;2023-06-01T08:32:19;23.38;;;13.90;;
56051;SDS011;41919;42.648;23.384;2023-06-01T08:34:45;20.52;;;13.48;;
56051;SDS011;41919;42.648;23.384;2023-06-01T08:37:15;21.17;;;14.82;;
56051;SDS011;41919;42.648;23.384;2023-06-01T08:39:41;23.33;;;13.88;;
56051;SDS011;41919;42.648;23.384;2023-06-01T08:42:13;21.48;;;14.80;;
56051;SDS011;41919;42.648;23.384;2023-06-01T08:45:00;24.73;;;14.70;;
56051;SDS011;41919;42.648;23.384;2023-06-01T08:47:30;20.80;;;14.13;;
56051;SDS011;41919;42.648;23.384;2023-06-01T08:49:58;22.73;;;13.93;;
56051;SDS011;41919;42.648;23.384;2023-06-01T08:52:25;22.88;;;14.40;;
56051;SDS011;41919;42.648;23.384;2023-06-01T08:54:54;21.08;;;14.05;;
56051;SDS011;41919;42.648;23.384;2023-06-01T08:57:19;20.95;;;15.40;;
56051;SDS011;41919;42.648;23.384;2023-06-01T08:59:45;22.75;;;15.68;;
56051;SDS011;41919;42.648;23.384;2023-06-01T09:02:11;21.77;;;15.05;;
56051;SDS011;41919;42.648;23.384;2023-06-01T09:04:36;23.52;;;14.43;;
56051;SDS011;41919;42.648;23.384;2023-06-01T09:07:07;21.17;;;14.73;;
56051;SDS011;41919;42.648;23.384;2023-06-01T09:09:32;23.20;;;14.07;;
56051;SDS011;41919;42.648;23.384;2023-06-01T09:14:42;18.45;;;12.43;;
56051;SDS011;41919;42.648;23.384;2023-06-01T09:17:11;22.35;;;14.13;;
56051;SDS011;41919;42.648;23.384;2023-06-01T09:19:44;20.65;;;14.73;;
56051;SDS011;41919;42.648;23.384;2023-06-01T09:22:10;18.67;;;11.98;;
56051;SDS011;41919;42.648;23.384;2023-06-01T09:24:37;21.13;;;11.85;;
56051;SDS011;41919;42.648;23.384;2023-06-01T09:27:03;16.67;;;11.80;;
56051;SDS011;41919;42.648;23.384;2023-06-01T09:29:29;19.95;;;11.65;;
56051;SDS011;41919;42.648;23.384;2023-06-01T09:31:55;18.88;;;12.93;;
56051;SDS011;41919;42.648;23.384;2023-06-01T09:34:21;21.23;;;13.60;;
56051;SDS011;41919;42.648;23.384;2023-06-01T09:36:50;17.17;;;12.27;;
56051;SDS011;41919;42.648;23.384;2023-06-01T09:39:21;14.27;;;11.55;;
56051;SDS011;41919;42.648;23.384;2023-06-01T09:46:56;18.85;;;10.48;;
56051;SDS011;41919;42.648;23.384;2023-06-01T09:52:13;17.58;;;10.38;;
56051;SDS011;41919;42.648;23.384;2023-06-01T09:54:49;15.15;;;11.30;;
56051;SDS011;41919;42.648;23.384;2023-06-01T09:57:25;14.68;;;10.77;;
56051;SDS011;41919;42.648;23.384;2023-06-01T09:59:52;19.10;;;9.82;;
56051;SDS011;41919;42.648;23.384;2023-06-01T10:02:18;13.25;;;9.70;;
56051;SDS011;41919;42.648;23.384;2023-06-01T10:04:52;12.32;;;8.45;;
56051;SDS011;41919;42.648;23.384;2023-06-01T10:07:19;10.93;;;7.80;;
56051;SDS011;41919;42.648;23.384;2023-06-01T10:09:48;10.80;;;6.63;;
56051;SDS011;41919;42.648;23.384;2023-06-01T10:12:16;12.25;;;7.68;;
56051;SDS011;41919;42.648;23.384;2023-06-01T10:14:41;10.75;;;7.20;;
56051;SDS011;41919;42.648;23.384;2023-06-01T10:17:07;10.55;;;7.38;;
56051;SDS011;41919;42.648;23.384;2023-06-01T10:19:35;9.43;;;6.80;;
56051;SDS011;41919;42.648;23.384;2023-06-01T10:22:03;13.73;;;6.10;;
56051;SDS011;41919;42.648;23.384;2023-06-01T10:24:28;8.15;;;5.22;;
56051;SDS011;41919;42.648;23.384;2023-06-01T10:29:26;6.30;;;5.05;;
56051;SDS011;41919;42.648;23.384;2023-06-01T10:31:54;7.53;;;4.75;;
56051;SDS011;41919;42.648;23.384;2023-06-01T10:34:41;6.40;;;4.70;;
56051;SDS011;41919;42.648;23.384;2023-06-01T10:39:33;6.43;;;4.47;;
56051;SDS011;41919;42.648;23.384;2023-06-01T10:47:06;5.88;;;3.88;;
56051;SDS011;41919;42.648;23.384;2023-06-01T10:57:42;4.68;;;3.88;;
56051;SDS011;41919;42.648;23.384;2023-06-01T11:02:58;6.07;;;4.28;;
56051;SDS011;41919;42.648;23.384;2023-06-01T11:08:53;10.25;;;3.83;;
56051;SDS011;41919;42.648;23.384;2023-06-01T11:10:58;7.20;;;4.20;;
56051;SDS011;41919;42.648;23.384;2023-06-01T11:18:42;6.55;;;3.70;;
56051;SDS011;41919;42.648;23.384;2023-06-01T11:21:14;5.50;;;3.83;;
56051;SDS011;41919;42.648;23.384;2023-06-01T11:23:46;6.85;;;4.30;;
56051;SDS011;41919;42.648;23.384;2023-06-01T11:26:14;6.63;;;4.28;;
56051;SDS011;41919;42.648;23.384;2023-06-01T11:28:41;6.03;;;3.70;;
56051;SDS011;41919;42.648;23.384;2023-06-01T11:31:11;5.28;;;3.20;;
56051;SDS011;41919;42.648;23.384;2023-06-01T11:33:38;7.03;;;3.63;;
56051;SDS011;41919;42.648;23.384;2023-06-01T11:36:08;7.18;;;3.67;;
56051;SDS011;41919;42.648;23.384;2023-06-01T11:38:39;5.72;;;3.45;;
56051;SDS011;41919;42.648;23.384;2023-06-01T11:41:06;4.32;;;3.45;;
56051;SDS011;41919;42.648;23.384;2023-06-01T11:43:32;7.47;;;4.20;;
56051;SDS011;41919;42.648;23.384;2023-06-01T11:46:01;7.07;;;3.63;;
56051;SDS011;41919;42.648;23.384;2023-06-01T11:48:36;11.10;;;3.72;;
56051;SDS011;41919;42.648;23.384;2023-06-01T11:51:04;5.95;;;3.05;;
56051;SDS011;41919;42.648;23.384;2023-06-01T11:53:31;7.82;;;4.30;;
56051;SDS011;41919;42.648;23.384;2023-06-01T11:55:57;10.18;;;4.05;;
56051;SDS011;41919;42.648;23.384;2023-06-01T11:58:24;10.73;;;5.25;;
56051;SDS011;41919;42.648;23.384;2023-06-01T12:00:51;8.65;;;5.30;;
56051;SDS011;41919;42.648;23.384;2023-06-01T12:03:18;7.80;;;4.05;;
56051;SDS011;41919;42.648;23.384;2023-06-01T12:05:44;9.30;;;4.10;;
56051;SDS011;41919;42.648;23.384;2023-06-01T12:08:20;8.10;;;4.38;;
56051;SDS011;41919;42.648;23.384;2023-06-01T12:10:48;8.07;;;4.47;;
56051;SDS011;41919;42.648;23.384;2023-06-01T12:13:15;5.65;;;4.40;;
56051;SDS011;41919;42.648;23.384;2023-06-01T12:15:42;5.15;;;3.60;;
56051;SDS011;41919;42.648;23.384;2023-06-01T12:18:08;5.38;;;4.07;;
56051;SDS011;41919;42.648;23.384;2023-06-01T12:20:40;5.30;;;4.05;;
56051;SDS011;41919;42.648;23.384;2023-06-01T12:25:46;6.82;;;3.55;;
56051;SDS011;41919;42.648;23.384;2023-06-01T12:28:20;5.93;;;4.03;;
56051;SDS011;41919;42.648;23.384;2023-06-01T12:30:46;5.18;;;3.38;;
56051;SDS011;41919;42.648;23.384;2023-06-01T12:33:32;5.28;;;3.40;;
56051;SDS011;41919;42.648;23.384;2023-06-01T12:36:03;5.80;;;3.58;;
56051;SDS011;41919;42.648;23.384;2023-06-01T12:38:36;5.03;;;3.47;;
56051;SDS011;41919;42.648;23.384;2023-06-01T12:41:10;5.50;;;3.78;;
56051;SDS011;41919;42.648;23.384;2023-06-01T12:43:43;5.35;;;3.47;;
56051;SDS011;41919;42.648;23.384;2023-06-01T12:46:19;6.05;;;3.47;;
56051;SDS011;41919;42.648;23.384;2023-06-01T12:48:48;5.55;;;3.10;;
56051;SDS011;41919;42.648;23.384;2023-06-01T12:51:14;13.52;;;6.45;;
56051;SDS011;41919;42.648;23.384;2023-06-01T12:53:40;8.02;;;4.22;;
56051;SDS011;41919;42.648;23.384;2023-06-01T12:56:07;6.63;;;3.70;;
56051;SDS011;41919;42.648;23.384;2023-06-01T12:58:33;8.98;;;4.30;;
56051;SDS011;41919;42.648;23.384;2023-06-01T13:00:59;7.90;;;4.30;;
56051;SDS011;41919;42.648;23.384;2023-06-01T13:03:24;7.30;;;3.90;;
56051;SDS011;41919;42.648;23.384;2023-06-01T13:05:50;5.18;;;4.05;;
56051;SDS011;41919;42.648;23.384;2023-06-01T13:08:16;6.70;;;3.40;;
56051;SDS011;41919;42.648;23.384;2023-06-01T13:10:42;7.07;;;4.47;;
56051;SDS011;41919;42.648;23.384;2023-06-01T13:13:08;11.00;;;6.47;;
56051;SDS011;41919;42.648;23.384;2023-06-01T13:15:34;27.88;;;14.18;;
56051;SDS011;41919;42.648;23.384;2023-06-01T13:18:00;5.35;;;3.60;;
56051;SDS011;41919;42.648;23.384;2023-06-01T13:20:27;11.77;;;4.47;;
56051;SDS011;41919;42.648;23.384;2023-06-01T13:22:52;8.35;;;3.67;;
56051;SDS011;41919;42.648;23.384;2023-06-01T13:25:18;4.97;;;3.00;;
56051;SDS011;41919;42.648;23.384;2023-06-01T13:27:47;3.38;;;2.75;;
56051;SDS011;41919;42.648;23.384;2023-06-01T13:30:12;4.03;;;2.92;;
56051;SDS011;41919;42.648;23.384;2023-06-01T13:32:38;4.03;;;2.97;;
56051;SDS011;41919;42.648;23.384;2023-06-01T13:35:04;4.30;;;2.95;;
56051;SDS011;41919;42.648;23.384;2023-06-01T13:37:30;4.50;;;3.15;;
56051;SDS011;41919;42.648;23.384;2023-06-01T13:39:55;7.38;;;3.30;;
56051;SDS011;41919;42.648;23.384;2023-06-01T13:42:20;3.63;;;2.53;;
56051;SDS011;41919;42.648;23.384;2023-06-01T13:44:46;3.80;;;2.30;;
56051;SDS011;41919;42.648;23.384;2023-06-01T13:47:12;3.42;;;2.45;;
56051;SDS011;41919;42.648;23.384;2023-06-01T13:49:41;4.85;;;2.40;;
56051;SDS011;41919;42.648;23.384;2023-06-01T13:52:07;3.40;;;2.50;;
56051;SDS011;41919;42.648;23.384;2023-06-01T13:54:34;4.43;;;2.53;;
56051;SDS011;41919;42.648;23.384;2023-06-01T13:56:59;2.85;;;2.20;;
56051;SDS011;41919;42.648;23.384;2023-06-01T13:59:25;3.58;;;2.65;;
56051;SDS011;41919;42.648;23.384;2023-06-01T14:01:51;5.47;;;2.95;;
56051;SDS011;41919;42.648;23.384;2023-06-01T14:04:16;3.90;;;2.60;;
56051;SDS011;41919;42.648;23.384;2023-06-01T14:06:42;3.63;;;2.50;;
56051;SDS011;41919;42.648;23.384;2023-06-01T14:09:08;4.32;;;2.83;;
56051;SDS011;41919;42.648;23.384;2023-06-01T14:11:34;5.53;;;2.97;;
56051;SDS011;41919;42.648;23.384;2023-06-01T14:13:59;5.13;;;3.05;;
56051;SDS011;41919;42.648;23.384;2023-06-01T14:16:25;3.20;;;2.53;;
56051;SDS011;41919;42.648;23.384;2023-06-01T14:18:51;3.03;;;2.35;;
56051;SDS011;41919;42.648;23.384;2023-06-01T14:21:20;3.63;;;3.17;;
56051;SDS011;41919;42.648;23.384;2023-06-01T14:23:48;6.75;;;3.60;;
56051;SDS011;41919;42.648;23.384;2023-06-01T14:26:14;6.55;;;2.85;;
56051;SDS011;41919;42.648;23.384;2023-06-01T14:28:40;9.10;;;3.30;;
56051;SDS011;41919;42.648;23.384;2023-06-01T14:31:06;4.45;;;3.20;;
56051;SDS011;41919;42.648;23.384;2023-06-01T14:33:31;3.97;;;2.63;;
56051;SDS011;41919;42.648;23.384;2023-06-01T14:35:57;4.70;;;3.38;;
56051;SDS011;41919;42.648;23.384;2023-06-01T14:38:22;8.38;;;3.70;;
56051;SDS011;41919;42.648;23.384;2023-06-01T14:40:48;4.10;;;3.42;;
56051;SDS011;41919;42.648;23.384;2023-06-01T14:43:13;4.03;;;3.17;;
56051;SDS011;41919;42.648;23.384;2023-06-01T14:45:39;5.38;;;3.50;;
56051;SDS011;41919;42.648;23.384;2023-06-01T14:48:04;4.53;;;3.13;;
56051;SDS011;41919;42.648;23.384;2023-06-01T14:50:29;5.50;;;3.63;;
56051;SDS011;41919;42.648;23.384;2023-06-01T14:52:55;5.15;;;3.45;;
56051;SDS011;41919;42.648;23.384;2023-06-01T14:55:24;4.75;;;3.53;;
56051;SDS011;41919;42.648;23.384;2023-06-01T14:57:50;5.00;;;3.55;;
56051;SDS011;41919;42.648;23.384;2023-06-01T15:00:16;4.45;;;3.40;;
56051;SDS011;41919;42.648;23.384;2023-06-01T15:02:42;5.55;;;3.55;;
56051;SDS011;41919;42.648;23.384;2023-06-01T15:05:07;5.63;;;3.70;;
56051;SDS011;41919;42.648;23.384;2023-06-01T15:07:33;3.67;;;2.83;;
56051;SDS011;41919;42.648;23.384;2023-06-01T15:09:58;8.35;;;3.63;;
56051;SDS011;41919;42.648;23.384;2023-06-01T15:12:24;4.88;;;3.75;;
56051;SDS011;41919;42.648;23.384;2023-06-01T15:14:49;6.15;;;3.53;;
56051;SDS011;41919;42.648;23.384;2023-06-01T15:17:16;7.20;;;3.72;;
56051;SDS011;41919;42.648;23.384;2023-06-01T15:19:42;5.55;;;3.35;;
56051;SDS011;41919;42.648;23.384;2023-06-01T15:22:07;4.00;;;2.97;;